createdAt,value
2018-04-08T00:02:13.739Z,17.87
2018-04-08T00:04:47.527Z,20.37
2018-04-08T00:07:21.592Z,17.47
2018-04-08T00:09:55.951Z,16.90
2018-04-08T00:12:30.392Z,19.07
2018-04-08T00:15:04.477Z,20.57
2018-04-08T00:17:39.297Z,18.23
2018-04-08T00:20:13.754Z,17.80
2018-04-08T00:22:47.328Z,18.40
2018-04-08T00:25:21.260Z,20.33
2018-04-08T00:27:54.969Z,17.63
2018-04-08T00:30:28.746Z,16.40
2018-04-08T00:33:02.783Z,21.20
2018-04-08T00:35:36.919Z,17.17
2018-04-08T00:38:10.892Z,16.80
2018-04-08T00:40:44.498Z,17.30
2018-04-08T00:43:19.158Z,15.70
2018-04-08T00:45:53.540Z,17.60
2018-04-08T00:48:27.841Z,18.80
2018-04-08T00:51:02.299Z,18.10
2018-04-08T00:53:36.480Z,18.60
2018-04-08T00:56:11.714Z,19.83
2018-04-08T00:58:46.467Z,19.43
2018-04-08T01:01:20.353Z,19.63
2018-04-08T01:03:54.192Z,19.13
2018-04-08T01:06:28.033Z,21.13
2018-04-08T01:09:02.024Z,19.43
2018-04-08T01:11:35.674Z,22.17
2018-04-08T01:14:10.121Z,19.07
2018-04-08T01:16:43.996Z,19.07
2018-04-08T01:19:17.969Z,17.00
2018-04-08T01:21:52.726Z,17.20
2018-04-08T01:24:26.456Z,18.70
2018-04-08T01:27:01.318Z,17.43
2018-04-08T01:29:35.170Z,15.63
2018-04-08T01:32:08.977Z,16.90
2018-04-08T01:34:43.562Z,17.57
2018-04-08T01:37:18.127Z,17.07
2018-04-08T01:39:52.035Z,19.40
2018-04-08T01:42:25.828Z,18.30
2018-04-08T01:45:00.711Z,21.97
2018-04-08T01:47:34.482Z,18.83
2018-04-08T01:50:08.183Z,17.60
2018-04-08T01:52:42.066Z,19.73
2018-04-08T01:55:16.686Z,20.53
2018-04-08T01:57:51.745Z,17.47
2018-04-08T02:00:26.484Z,20.40
2018-04-08T02:03:01.948Z,23.40
2018-04-08T02:05:36.346Z,18.77
2018-04-08T02:08:10.567Z,18.57
2018-04-08T02:10:44.784Z,17.70
2018-04-08T02:13:18.964Z,17.93
2018-04-08T02:15:53.284Z,16.87
2018-04-08T02:18:28.030Z,20.60
2018-04-08T02:21:03.331Z,22.67
2018-04-08T02:23:36.831Z,22.57
2018-04-08T02:26:11.984Z,21.47
2018-04-08T02:28:46.700Z,20.63
2018-04-08T02:31:22.547Z,24.03
2018-04-08T02:33:56.380Z,20.73
2018-04-08T02:36:31.121Z,17.30
2018-04-08T02:39:06.045Z,21.23
2018-04-08T02:41:39.729Z,19.53
2018-04-08T02:44:14.550Z,22.50
2018-04-08T02:46:49.367Z,22.63
2018-04-08T02:49:24.295Z,18.97
2018-04-08T02:51:58.223Z,17.93
2018-04-08T02:54:32.233Z,18.20
2018-04-08T02:57:06.960Z,22.43
2018-04-08T02:59:41.289Z,21.97
2018-04-08T03:02:15.305Z,20.97
2018-04-08T03:04:49.082Z,19.90
2018-04-08T03:07:24.130Z,21.43
2018-04-08T03:09:59.258Z,22.37
2018-04-08T03:12:34.283Z,18.60
2018-04-08T03:15:08.924Z,20.77
2018-04-08T03:17:42.928Z,18.73
2018-04-08T03:20:16.707Z,24.00
2018-04-08T03:22:50.753Z,24.37
2018-04-08T03:25:25.786Z,26.17
2018-04-08T03:28:00.517Z,27.80
2018-04-08T03:30:35.328Z,23.93
2018-04-08T03:33:10.249Z,22.80
2018-04-08T03:35:44.263Z,19.40
2018-04-08T03:38:18.093Z,21.20
2018-04-08T03:40:51.967Z,21.53
2018-04-08T03:43:26.821Z,20.33
2018-04-08T03:46:02.264Z,20.97
2018-04-08T03:48:37.116Z,20.77
2018-04-08T03:51:12.315Z,23.83
2018-04-08T03:53:48.802Z,21.57
2018-04-08T03:56:23.400Z,19.37
2018-04-08T03:58:57.019Z,18.80
2018-04-08T04:01:31.013Z,25.70
2018-04-08T04:04:06.152Z,21.83
2018-04-08T04:06:41.090Z,18.83
2018-04-08T04:09:15.708Z,19.03
2018-04-08T04:11:49.722Z,19.83
2018-04-08T04:14:24.798Z,21.30
2018-04-08T04:16:59.676Z,22.53
2018-04-08T04:19:45.761Z,18.47
2018-04-08T04:22:31.352Z,19.93
2018-04-08T04:25:18.907Z,20.40
2018-04-08T04:27:53.470Z,21.20
2018-04-08T04:30:28.428Z,21.37
2018-04-08T04:33:03.090Z,18.83
2018-04-08T04:35:37.286Z,22.57
2018-04-08T04:38:11.395Z,21.00
2018-04-08T04:40:46.335Z,22.10
2018-04-08T04:43:20.528Z,22.37
2018-04-08T04:45:54.465Z,22.60
2018-04-08T04:48:29.699Z,23.40
2018-04-08T04:51:03.681Z,25.47
2018-04-08T04:53:38.134Z,24.83
2018-04-08T04:56:11.989Z,24.07
2018-04-08T04:58:46.748Z,22.37
2018-04-08T05:01:20.721Z,21.40
2018-04-08T05:03:56.507Z,21.97
2018-04-08T05:06:30.531Z,21.63
2018-04-08T05:09:04.409Z,20.80
2018-04-08T05:11:38.209Z,23.63
2018-04-08T05:14:13.038Z,23.30
2018-04-08T05:16:48.717Z,22.70
2018-04-08T05:19:24.646Z,21.70
2018-04-08T05:22:00.212Z,20.30
2018-04-08T05:24:35.536Z,25.43
2018-04-08T05:27:10.660Z,20.20
2018-04-08T05:29:45.227Z,22.97
2018-04-08T05:32:19.616Z,21.10
2018-04-08T05:34:54.960Z,21.27
2018-04-08T05:37:28.777Z,20.03
2018-04-08T05:40:02.352Z,18.80
2018-04-08T05:42:37.599Z,21.50
2018-04-08T05:45:11.298Z,20.63
2018-04-08T05:47:45.307Z,22.53
2018-04-08T05:50:19.020Z,19.87
2018-04-08T05:52:52.620Z,22.27
2018-04-08T05:55:28.154Z,22.57
2018-04-08T05:58:03.736Z,19.70
2018-04-08T06:00:39.351Z,21.10
2018-04-08T06:03:13.923Z,21.43
2018-04-08T06:05:49.125Z,18.23
2018-04-08T06:08:23.637Z,22.27
2018-04-08T06:10:57.649Z,21.70
2018-04-08T06:13:32.363Z,22.37
2018-04-08T06:16:08.212Z,19.80
2018-04-08T06:18:42.452Z,22.10
2018-04-08T06:21:17.576Z,18.83
2018-04-08T06:23:52.121Z,19.33
2018-04-08T06:26:27.126Z,18.33
2018-04-08T06:29:01.144Z,18.67
2018-04-08T06:31:36.905Z,19.13
2018-04-08T06:34:10.995Z,20.57
2018-04-08T06:36:44.996Z,21.00
2018-04-08T06:39:18.817Z,18.23
2018-04-08T06:41:52.616Z,18.37
2018-04-08T06:44:27.860Z,22.10
2018-04-08T06:47:02.504Z,20.77
2018-04-08T06:49:37.705Z,17.70
2018-04-08T06:52:12.125Z,21.00
2018-04-08T06:54:46.247Z,19.80
2018-04-08T06:57:20.539Z,18.53
2018-04-08T06:59:54.572Z,19.83
2018-04-08T07:02:28.792Z,22.40
2018-04-08T07:05:03.708Z,18.07
2018-04-08T07:07:39.168Z,20.07
2018-04-08T07:10:13.700Z,16.67
2018-04-08T07:12:48.386Z,17.10
2018-04-08T07:15:22.120Z,18.83
2018-04-08T07:17:56.042Z,15.93
2018-04-08T07:20:31.146Z,18.13
2018-04-08T07:23:05.066Z,14.30
2018-04-08T07:25:40.188Z,16.20
2018-04-08T07:28:14.408Z,16.97
2018-04-08T07:30:48.339Z,15.43
2018-04-08T07:33:21.923Z,18.63
2018-04-08T07:35:56.439Z,18.20
2018-04-08T07:38:31.060Z,13.97
2018-04-08T07:41:04.780Z,19.70
2018-04-08T07:43:40.219Z,14.63
2018-04-08T07:46:15.021Z,12.97
2018-04-08T07:48:50.150Z,15.73
2018-04-08T07:51:23.761Z,14.90
2018-04-08T07:53:59.532Z,14.30
2018-04-08T07:56:33.853Z,13.73
2018-04-08T07:59:08.881Z,13.23
2018-04-08T08:01:43.480Z,15.87
2018-04-08T08:04:17.254Z,14.93
2018-04-08T08:06:51.961Z,12.87
2018-04-08T08:09:25.796Z,20.30
2018-04-08T08:12:00.255Z,14.50
2018-04-08T08:14:34.790Z,12.90
2018-04-08T08:17:09.688Z,14.87
2018-04-08T08:19:43.297Z,13.60
2018-04-08T08:22:17.886Z,15.20
2018-04-08T08:24:52.016Z,12.90
2018-04-08T08:27:26.228Z,13.33
2018-04-08T08:30:00.347Z,14.23
2018-04-08T08:32:34.339Z,14.80
2018-04-08T08:35:09.096Z,13.20
2018-04-08T08:37:44.177Z,14.43
2018-04-08T08:40:17.846Z,12.67
2018-04-08T08:42:52.034Z,13.97
2018-04-08T08:45:27.412Z,13.50
2018-04-08T08:48:02.266Z,13.07
2018-04-08T08:50:36.344Z,15.07
2018-04-08T08:53:10.230Z,14.70
2018-04-08T08:55:45.860Z,12.93
2018-04-08T08:58:20.450Z,14.27
2018-04-08T09:00:55.223Z,14.73
2018-04-08T09:03:30.050Z,14.20
2018-04-08T09:06:04.555Z,15.70
2018-04-08T09:08:39.298Z,15.37
2018-04-08T09:11:14.640Z,14.27
2018-04-08T09:13:49.772Z,14.97
2018-04-08T09:16:23.782Z,18.23
2018-04-08T09:19:00.515Z,15.53
2018-04-08T09:21:40.192Z,16.13
2018-04-08T09:24:20.557Z,19.87
2018-04-08T09:26:55.076Z,17.40
2018-04-08T09:29:30.536Z,15.10
2018-04-08T09:32:05.954Z,15.63
2018-04-08T09:34:41.202Z,14.93
2018-04-08T09:37:15.854Z,16.03
2018-04-08T09:39:50.268Z,17.47
2018-04-08T09:42:24.183Z,15.93
2018-04-08T09:44:59.676Z,15.30
2018-04-08T09:47:33.654Z,15.67
2018-04-08T09:50:08.350Z,18.87
2018-04-08T09:52:42.773Z,15.63
2018-04-08T09:55:17.597Z,13.90
2018-04-08T09:58:07.565Z,16.47
2018-04-08T10:14:02.367Z,19.27
2018-04-08T10:16:37.351Z,16.97
2018-04-08T10:19:11.221Z,17.40
2018-04-08T10:21:46.701Z,18.37
2018-04-08T10:24:20.648Z,17.43
2018-04-08T10:26:54.559Z,16.97
2018-04-08T10:29:29.273Z,18.00
2018-04-08T10:32:03.700Z,25.57
2018-04-08T10:34:38.249Z,17.03
2018-04-08T10:37:12.203Z,19.17
2018-04-08T10:39:46.631Z,17.80
2018-04-08T10:42:20.176Z,18.77
2018-04-08T10:44:54.958Z,16.20
2018-04-08T10:47:28.970Z,18.87
2018-04-08T10:50:02.677Z,17.73
2018-04-08T10:52:36.991Z,31.07
2018-04-08T10:55:12.769Z,81.67
2018-04-08T10:57:47.055Z,22.57
2018-04-08T11:00:20.878Z,20.13
2018-04-08T11:02:54.667Z,20.47
2018-04-08T11:05:30.856Z,19.13
2018-04-08T11:08:05.167Z,17.77
2018-04-08T11:10:38.931Z,19.43
2018-04-08T11:13:13.136Z,16.30
2018-04-08T11:15:48.201Z,19.80
2018-04-08T11:18:22.318Z,17.10
2018-04-08T11:20:55.992Z,19.63
2018-04-08T11:23:30.400Z,17.27
2018-04-08T11:26:05.056Z,15.30
2018-04-08T11:28:40.342Z,15.33
2018-04-08T11:31:14.912Z,20.33
2018-04-08T11:33:49.589Z,18.53
2018-04-08T11:36:23.878Z,15.77
2018-04-08T11:38:59.165Z,17.37
2018-04-08T11:41:32.976Z,13.93
2018-04-08T11:44:07.625Z,15.00
2018-04-08T11:46:42.453Z,16.77
2018-04-08T11:49:17.081Z,13.70
2018-04-08T11:51:51.778Z,12.57
2018-04-08T11:54:25.473Z,13.83
2018-04-08T11:57:00.214Z,14.97
2018-04-08T11:59:34.112Z,12.83
2018-04-08T12:02:07.780Z,12.23
2018-04-08T12:04:41.352Z,12.83
2018-04-08T12:07:14.827Z,11.07
2018-04-08T12:09:48.709Z,10.93
2018-04-08T12:12:22.256Z,9.70
2018-04-08T12:14:57.193Z,14.17
2018-04-08T12:17:31.569Z,12.93
2018-04-08T12:20:06.817Z,14.03
2018-04-08T12:22:40.702Z,14.00
2018-04-08T12:25:15.330Z,10.63
2018-04-08T12:27:49.649Z,9.60
2018-04-08T12:30:23.211Z,9.97
2018-04-08T12:32:57.513Z,10.20
2018-04-08T12:35:31.872Z,8.70
2018-04-08T12:38:07.378Z,11.17
2018-04-08T12:40:41.854Z,9.63
2018-04-08T12:43:16.480Z,13.77
2018-04-08T12:45:50.964Z,13.97
2018-04-08T12:48:24.940Z,11.77
2018-04-08T12:50:59.601Z,11.00
2018-04-08T12:53:33.354Z,9.83
2018-04-08T12:56:07.105Z,9.23
2018-04-08T12:58:41.785Z,8.83
2018-04-08T13:01:15.396Z,9.63
2018-04-08T13:03:48.944Z,9.67
2018-04-08T13:06:22.627Z,9.27
2018-04-08T13:08:57.227Z,7.87
2018-04-08T13:11:31.852Z,17.57
2018-04-08T13:14:06.455Z,12.90
2018-04-08T13:16:40.924Z,6.07
2018-04-08T13:19:15.449Z,7.60
2018-04-08T13:21:49.064Z,7.23
2018-04-08T13:24:23.760Z,22.90
2018-04-08T13:26:57.530Z,8.23
2018-04-08T13:29:31.109Z,9.07
2018-04-08T13:32:05.419Z,9.43
2018-04-08T13:34:38.984Z,7.80
2018-04-08T13:37:13.236Z,6.67
2018-04-08T13:39:46.968Z,9.27
2018-04-08T13:42:22.062Z,8.13
2018-04-08T13:44:55.698Z,7.93
2018-04-08T13:47:29.208Z,7.90
2018-04-08T13:50:03.116Z,7.93
2018-04-08T13:52:37.781Z,7.40
2018-04-08T13:55:12.396Z,8.63
2018-04-08T13:57:46.728Z,8.87
2018-04-08T14:00:21.090Z,6.67
2018-04-08T14:02:54.557Z,11.23
2018-04-08T14:05:28.159Z,7.90
2018-04-08T14:08:01.725Z,6.30
2018-04-08T14:10:35.551Z,7.83
2018-04-08T14:13:09.906Z,9.97
2018-04-08T14:15:44.528Z,7.67
2018-04-08T14:18:18.198Z,6.87
2018-04-08T14:20:53.528Z,8.40
2018-04-08T14:23:27.407Z,9.90
2018-04-08T14:26:01.806Z,8.57
2018-04-08T14:28:36.173Z,7.70
2018-04-08T14:31:09.942Z,7.60
2018-04-08T14:33:43.580Z,8.73
2018-04-08T14:36:17.245Z,9.80
2018-04-08T14:38:51.100Z,8.03
2018-04-08T14:41:24.834Z,9.43
2018-04-08T14:43:59.543Z,10.30
2018-04-08T14:46:34.108Z,8.27
2018-04-08T14:49:08.644Z,9.63
2018-04-08T14:51:42.248Z,6.80
2018-04-08T14:54:16.113Z,7.13
2018-04-08T14:56:50.539Z,7.03
2018-04-08T14:59:25.139Z,9.13
2018-04-08T15:01:58.752Z,8.53
2018-04-08T15:04:32.609Z,8.37
2018-04-08T15:07:07.113Z,9.00
2018-04-08T15:09:41.408Z,9.03
2018-04-08T15:12:15.052Z,10.27
2018-04-08T15:14:48.745Z,10.63
2018-04-08T15:17:23.568Z,9.53
2018-04-08T15:19:57.265Z,7.17
2018-04-08T15:22:32.315Z,9.30
2018-04-08T15:25:06.017Z,9.37
2018-04-08T15:27:39.924Z,8.70
2018-04-08T15:30:13.692Z,9.73
2018-04-08T15:32:47.361Z,10.70
2018-04-08T15:35:20.855Z,9.53
2018-04-08T15:37:55.259Z,9.20
2018-04-08T15:40:29.094Z,9.43
2018-04-08T15:43:03.641Z,9.80
2018-04-08T15:45:37.562Z,10.80
2018-04-08T15:48:11.264Z,10.83
2018-04-08T15:50:44.921Z,9.50
2018-04-08T15:53:19.432Z,8.63
2018-04-08T15:55:53.156Z,8.97
2018-04-08T15:58:27.547Z,8.60
2018-04-08T16:01:02.177Z,9.40
2018-04-08T16:03:36.720Z,9.87
2018-04-08T16:06:10.325Z,10.60
2018-04-08T16:08:44.660Z,9.73
2018-04-08T16:11:19.057Z,12.50
2018-04-08T16:13:53.152Z,14.77
2018-04-08T16:16:28.022Z,9.23
2018-04-08T16:19:02.387Z,8.27
2018-04-08T16:21:36.220Z,12.43
2018-04-08T16:24:10.567Z,11.80
2018-04-08T16:26:44.896Z,13.07
2018-04-08T16:29:18.593Z,8.80
2018-04-08T16:31:53.084Z,9.70
2018-04-08T16:34:27.912Z,9.40
2018-04-08T16:37:02.325Z,7.47
2018-04-08T16:39:36.644Z,10.83
2018-04-08T16:42:10.384Z,8.07
2018-04-08T16:44:44.694Z,7.73
2018-04-08T16:47:18.311Z,6.77
2018-04-08T16:49:51.875Z,7.43
2018-04-08T16:52:25.805Z,7.97
2018-04-08T16:54:59.475Z,10.73
2018-04-08T16:57:33.042Z,8.20
2018-04-08T17:00:07.040Z,6.20
2018-04-08T17:02:40.694Z,6.13
2018-04-08T17:05:14.273Z,5.90
2018-04-08T17:07:48.744Z,6.83
2018-04-08T17:10:22.728Z,7.10
2018-04-08T17:12:56.389Z,7.37
2018-04-08T17:15:30.957Z,11.57
2018-04-08T17:18:05.402Z,9.93
2018-04-08T17:20:39.801Z,11.67
2018-04-08T17:23:13.537Z,12.77
2018-04-08T17:25:47.365Z,8.67
2018-04-08T17:28:20.900Z,10.27
2018-04-08T17:30:54.520Z,9.33
2018-04-08T17:33:28.296Z,9.87
2018-04-08T17:36:02.695Z,9.77
2018-04-08T17:38:36.386Z,9.43
2018-04-08T17:41:10.106Z,9.37
2018-04-08T17:43:44.572Z,11.03
2018-04-08T17:46:18.175Z,11.07
2018-04-08T17:48:52.046Z,9.87
2018-04-08T17:51:26.505Z,13.73
2018-04-08T17:54:00.252Z,9.37
2018-04-08T17:56:34.069Z,10.07
2018-04-08T17:59:07.562Z,8.87
2018-04-08T18:01:41.256Z,11.30
2018-04-08T18:04:14.828Z,12.30
2018-04-08T18:06:48.316Z,13.57
2018-04-08T18:09:22.603Z,10.80
2018-04-08T18:11:56.081Z,8.53
2018-04-08T18:14:29.585Z,8.80
2018-04-08T18:17:03.103Z,14.30
2018-04-08T18:19:36.614Z,9.47
2018-04-08T18:22:10.290Z,10.27
2018-04-08T18:24:43.899Z,9.63
2018-04-08T18:27:17.569Z,13.13
2018-04-08T18:29:51.208Z,10.37
2018-04-08T18:32:25.202Z,13.47
2018-04-08T18:34:58.692Z,13.73
2018-04-08T18:37:32.470Z,12.97
2018-04-08T18:40:06.189Z,14.03
2018-04-08T18:42:39.828Z,13.93
2018-04-08T18:45:13.548Z,15.43
2018-04-08T18:47:47.140Z,13.07
2018-04-08T18:50:21.526Z,14.30
2018-04-08T18:52:55.031Z,14.67
2018-04-08T18:55:29.276Z,15.63
2018-04-08T18:58:03.694Z,16.50
2018-04-08T19:00:37.498Z,16.57
2018-04-08T19:03:11.595Z,16.07
2018-04-08T19:05:46.012Z,16.03
2018-04-08T19:08:20.490Z,17.73
2018-04-08T19:10:54.115Z,15.67
2018-04-08T19:13:27.796Z,16.93
2018-04-08T19:16:02.320Z,16.60
2018-04-08T19:18:35.916Z,15.80
2018-04-08T19:21:10.323Z,16.60
2018-04-08T19:23:50.394Z,16.10
2018-04-08T19:26:24.186Z,17.53
2018-04-08T19:28:57.749Z,14.90
2018-04-08T19:31:31.542Z,18.53
2018-04-08T19:34:05.824Z,20.73
2018-04-08T19:36:39.540Z,13.87
2018-04-08T19:39:13.057Z,18.67
2018-04-08T19:41:47.506Z,18.80
2018-04-08T19:44:21.610Z,16.07
2018-04-08T19:46:55.144Z,17.37
2018-04-08T19:49:28.758Z,16.07
2018-04-08T19:52:02.513Z,15.73
2018-04-08T19:54:36.318Z,13.93
2018-04-08T19:57:10.026Z,15.13
2018-04-08T19:59:43.568Z,16.27
2018-04-08T20:02:18.089Z,16.80
2018-04-08T20:04:52.582Z,17.33
2018-04-08T20:07:26.978Z,16.57
2018-04-08T20:10:01.522Z,14.50
2018-04-08T20:12:35.188Z,15.33
2018-04-08T20:15:08.740Z,13.43
2018-04-08T20:17:43.108Z,14.80
2018-04-08T20:20:16.680Z,14.20
2018-04-08T20:22:51.290Z,12.80
2018-04-08T20:25:24.936Z,14.60
2018-04-08T20:27:58.528Z,13.60
2018-04-08T20:30:33.036Z,13.17
2018-04-08T20:33:06.592Z,13.60
2018-04-08T20:35:40.202Z,14.47
2018-04-08T20:38:15.178Z,13.70
2018-04-08T20:40:48.657Z,16.27
2018-04-08T20:43:22.254Z,15.70
2018-04-08T20:45:56.011Z,14.87
2018-04-08T20:48:30.569Z,12.90
2018-04-08T20:51:05.971Z,14.23
2018-04-08T20:53:42.004Z,16.83
2018-04-08T20:56:16.224Z,15.73
2018-04-08T20:58:52.501Z,12.50
2018-04-08T21:01:26.405Z,13.43
2018-04-08T21:04:01.597Z,13.00
2018-04-08T21:06:36.604Z,16.83
2018-04-08T21:09:10.153Z,16.13
2018-04-08T21:11:44.155Z,15.20
2018-04-08T21:14:18.009Z,15.50
2018-04-08T21:16:54.553Z,16.53
2018-04-08T21:19:29.029Z,13.90
2018-04-08T21:22:03.239Z,15.13
2018-04-08T21:24:37.767Z,14.17
2018-04-08T21:27:12.000Z,18.00
2018-04-08T21:29:45.796Z,16.33
2018-04-08T21:32:19.692Z,11.80
2018-04-08T21:34:53.633Z,13.73
2018-04-08T21:37:27.805Z,14.80
2018-04-08T21:40:02.240Z,15.90
2018-04-08T21:42:36.764Z,16.10
2018-04-08T21:45:10.612Z,15.47
2018-04-08T21:47:44.272Z,17.17
2018-04-08T21:50:17.977Z,14.00
2018-04-08T21:52:52.008Z,14.43
2018-04-08T21:55:25.885Z,13.50
2018-04-08T21:58:00.829Z,15.23
2018-04-08T22:00:35.360Z,14.63
2018-04-08T22:03:09.927Z,15.57
2018-04-08T22:05:44.806Z,17.13
2018-04-08T22:08:18.524Z,12.93
2018-04-08T22:10:53.428Z,14.17
2018-04-08T22:13:27.158Z,12.87
2018-04-08T22:16:01.254Z,15.67
2018-04-08T22:18:35.252Z,15.87
2018-04-08T22:21:09.335Z,14.93
2018-04-08T22:23:44.088Z,14.93
2018-04-08T22:26:18.262Z,14.93
2018-04-08T22:28:52.741Z,14.47
2018-04-08T22:31:27.153Z,13.37
2018-04-08T22:34:01.322Z,16.50
2018-04-08T22:36:35.695Z,13.07
2018-04-08T22:39:09.835Z,13.57
2018-04-08T22:41:43.804Z,15.63
2018-04-08T22:44:18.336Z,14.50
2018-04-08T22:46:52.401Z,13.73
2018-04-08T22:49:27.121Z,13.67
2018-04-08T22:52:01.488Z,13.80
2018-04-08T22:54:35.478Z,13.80
2018-04-08T22:57:09.919Z,14.30
2018-04-08T22:59:45.029Z,13.87
2018-04-08T23:02:19.862Z,14.60
2018-04-08T23:04:54.401Z,13.13
2018-04-08T23:07:29.019Z,14.17
2018-04-08T23:10:04.089Z,12.70
2018-04-08T23:12:38.844Z,13.60
2018-04-08T23:15:12.704Z,13.77
2018-04-08T23:17:46.780Z,14.77
2018-04-08T23:20:21.264Z,13.67
2018-04-08T23:22:55.415Z,13.93
2018-04-08T23:25:29.221Z,14.87
2018-04-08T23:28:08.961Z,18.70
2018-04-08T23:30:42.470Z,15.73
2018-04-08T23:33:16.233Z,14.47
2018-04-08T23:35:51.250Z,13.30
2018-04-08T23:38:25.414Z,12.37
2018-04-08T23:40:59.281Z,14.43
2018-04-08T23:43:33.417Z,14.17
2018-04-08T23:46:07.449Z,13.67
2018-04-08T23:48:41.758Z,13.77
2018-04-08T23:51:15.658Z,16.20
2018-04-08T23:53:49.906Z,15.17
2018-04-08T23:56:24.012Z,14.27
2018-04-08T23:58:58.474Z,14.93
